Time;durP1;ratioP1;P1;durP2;ratioP2;P2;SDS_P1;SDS_P2;PMS_P1;PMS_P2;Temp;Humidity;BMP_temperature;BMP_pressure;BME280_temperature;BME280_humidity;BME280_pressure;Samples;Min_cycle;Max_cycle;Signal;HPM_P1;HPM_P2
2021/12/23 00:01:42;;;;;;;;;;;-1.50;99.90;;;;;;4973708;28;19926;-81
2021/12/23 00:04:10;;;;;;;;;;;-1.50;99.90;;;;;;4957436;28;20314;-81
2021/12/23 00:06:36;;;;;;;;;;;-1.50;99.90;;;;;;4973064;28;19936;-81
2021/12/23 00:09:04;;;;;;;;;;;-1.40;99.90;;;;;;4957336;28;19981;-81
2021/12/23 00:11:29;;;;;;;;;;;-1.40;99.90;;;;;;4957299;28;19922;-81
2021/12/23 00:14:03;;;;;;;;;;;-1.40;99.90;;;;;;4972935;28;20408;-80
2021/12/23 00:16:46;;;;;;;;;;;-1.40;99.90;;;;;;4957614;28;20374;-80
2021/12/23 00:19:21;;;;;;;;;;;-1.40;99.90;;;;;;4973460;28;19926;-81
2021/12/23 00:24:32;;;;;;;;;;;-1.30;99.90;;;;;;4972709;28;19933;-81
2021/12/23 00:26:57;;;;;;;;;;;-1.30;99.90;;;;;;4956973;28;19922;-80
2021/12/23 00:29:23;;;;;;;;;;;-1.30;99.90;;;;;;4956604;28;19930;-81
2021/12/23 00:31:48;;;;;;;;;;;-1.30;99.90;;;;;;4956666;28;19922;-80
2021/12/23 00:34:14;;;;;;;;;;;-1.30;99.90;;;;;;4973217;28;19961;-81
2021/12/23 00:36:43;;;;;;;;;;;-1.30;99.90;;;;;;4956954;28;20299;-81
2021/12/23 00:39:09;;;;;;;;;;;-1.30;99.90;;;;;;4956848;28;19922;-81
2021/12/23 00:41:35;;;;;;;;;;;-1.30;99.90;;;;;;4956968;28;19930;-81
2021/12/23 00:44:00;;;;;;;;;;;-1.30;99.90;;;;;;4956994;28;19926;-81
2021/12/23 00:46:26;;;;;;;;;;;-1.30;99.90;;;;;;4956673;28;20016;-80
2021/12/23 00:48:51;;;;;;;;;;;-1.30;99.90;;;;;;4956389;28;20350;-81
2021/12/23 00:51:18;;;;;;;;;;;-1.30;99.90;;;;;;4956696;28;19922;-80
2021/12/23 00:53:45;;;;;;;;;;;-1.20;99.90;;;;;;4956510;28;19926;-81
2021/12/23 00:56:11;;;;;;;;;;;-1.20;99.90;;;;;;4972990;28;20363;-81
2021/12/23 00:58:37;;;;;;;;;;;-1.20;99.90;;;;;;4956470;28;19922;-81
2021/12/23 01:01:03;;;;;;;;;;;-1.20;99.90;;;;;;4972594;28;19953;-81
2021/12/23 01:03:29;;;;;;;;;;;-1.20;99.90;;;;;;4956209;28;19926;-81
2021/12/23 01:05:54;;;;;;;;;;;-1.20;99.90;;;;;;4956552;28;20441;-80
2021/12/23 01:08:20;;;;;;;;;;;-1.20;99.90;;;;;;4972454;28;19922;-80
2021/12/23 01:10:49;;;;;;;;;;;-1.20;99.90;;;;;;4955801;28;20420;-80
2021/12/23 01:13:14;;;;;;;;;;;-1.20;99.90;;;;;;4972362;28;19922;-80
2021/12/23 01:15:58;;;;;;;;;;;-1.20;99.90;;;;;;4973006;28;19945;-80
2021/12/23 01:18:24;;;;;;;;;;;-1.20;99.90;;;;;;4972249;28;20394;-80
2021/12/23 01:21:02;;;;;;;;;;;-1.20;99.90;;;;;;4955939;28;19922;-80
2021/12/23 01:23:28;;;;;;;;;;;-1.10;99.90;;;;;;4972658;28;19923;-80
2021/12/23 01:25:53;;;;;;;;;;;-1.20;99.90;;;;;;4956247;28;20031;-80
2021/12/23 01:28:19;;;;;;;;;;;-1.10;99.90;;;;;;4972343;28;19965;-80
2021/12/23 01:30:45;;;;;;;;;;;-1.10;99.90;;;;;;4956025;28;20004;-80
2021/12/23 01:33:11;;;;;;;;;;;-1.20;99.90;;;;;;4956292;28;20433;-80
2021/12/23 01:35:37;;;;;;;;;;;-1.20;99.90;;;;;;4955507;28;19929;-80
2021/12/23 01:38:03;;;;;;;;;;;-1.10;99.90;;;;;;4972214;28;19965;-80
2021/12/23 01:40:29;;;;;;;;;;;-1.10;99.90;;;;;;4955725;28;19922;-80
2021/12/23 01:42:55;;;;;;;;;;;-1.10;99.90;;;;;;4955960;28;19922;-80
2021/12/23 01:45:22;;;;;;;;;;;-1.20;99.90;;;;;;4956064;28;20005;-80
2021/12/23 01:47:48;;;;;;;;;;;-1.20;99.90;;;;;;4955991;28;19930;-80
2021/12/23 01:50:15;;;;;;;;;;;-1.20;99.90;;;;;;4971661;28;19922;-80
2021/12/23 01:52:41;;;;;;;;;;;-1.20;99.90;;;;;;4955807;28;19945;-81
2021/12/23 01:55:07;;;;;;;;;;;-1.10;99.90;;;;;;4956296;28;20323;-81
2021/12/23 01:57:33;;;;;;;;;;;-1.20;99.90;;;;;;4955744;28;20409;-81
2021/12/23 01:59:59;;;;;;;;;;;-1.20;99.90;;;;;;4955989;28;19922;-80
2021/12/23 02:02:25;;;;;;;;;;;-1.20;99.90;;;;;;4955845;28;19969;-80
2021/12/23 02:04:51;;;;;;;;;;;-1.20;99.90;;;;;;4955552;28;20408;-80
2021/12/23 02:07:17;;;;;;;;;;;-1.20;99.90;;;;;;4971873;28;19945;-80
2021/12/23 02:09:43;;;;;;;;;;;-1.20;99.90;;;;;;4955873;28;19922;-81
2021/12/23 02:12:08;;;;;;;;;;;-1.10;99.90;;;;;;4955652;28;19922;-80
2021/12/23 02:14:34;;;;;;;;;;;-1.10;99.90;;;;;;4955196;28;19929;-80
2021/12/23 02:16:59;;;;;;;;;;;-1.10;99.90;;;;;;4955262;28;19926;-80
2021/12/23 02:19:26;;;;;;;;;;;-1.10;99.90;;;;;;4971539;28;19922;-80
2021/12/23 02:21:52;;;;;;;;;;;-1.10;99.90;;;;;;4955755;28;20374;-80
2021/12/23 02:24:17;;;;;;;;;;;-1.10;99.90;;;;;;4955522;28;20008;-81
2021/12/23 02:26:43;;;;;;;;;;;-1.10;99.90;;;;;;4956085;28;19922;-80
2021/12/23 02:29:09;;;;;;;;;;;-1.10;99.90;;;;;;4955840;28;20305;-80
2021/12/23 02:31:35;;;;;;;;;;;-1.10;99.90;;;;;;4955452;28;20019;-80
2021/12/23 02:34:00;;;;;;;;;;;-1.10;99.90;;;;;;4955104;28;20351;-80
2021/12/23 02:36:30;;;;;;;;;;;-1.10;99.90;;;;;;4955623;28;19926;-80
2021/12/23 02:38:56;;;;;;;;;;;-1.10;99.90;;;;;;4954972;28;19922;-81
2021/12/23 02:41:22;;;;;;;;;;;-1.10;99.90;;;;;;4955468;28;19926;-81
2021/12/23 02:43:47;;;;;;;;;;;-1.10;99.90;;;;;;4971600;28;19937;-81
2021/12/23 02:46:13;;;;;;;;;;;-1.10;99.90;;;;;;4956640;28;19933;-80
2021/12/23 02:48:39;;;;;;;;;;;-1.10;99.90;;;;;;4958431;28;20350;-80
2021/12/23 02:51:06;;;;;;;;;;;-1.10;99.90;;;;;;4958923;28;19922;-80
2021/12/23 02:53:32;;;;;;;;;;;-1.10;99.90;;;;;;4974629;28;19945;-80
2021/12/23 02:55:58;;;;;;;;;;;-1.00;99.90;;;;;;4958854;28;20341;-80
2021/12/23 02:58:24;;;;;;;;;;;-1.00;99.90;;;;;;4959277;28;20382;-80
2021/12/23 03:00:51;;;;;;;;;;;-1.00;99.90;;;;;;4958568;28;19976;-81
2021/12/23 03:03:17;;;;;;;;;;;-1.00;99.90;;;;;;4974309;28;19932;-81
2021/12/23 03:05:50;;;;;;;;;;;-1.00;99.90;;;;;;4958806;28;20345;-81
2021/12/23 03:08:15;;;;;;;;;;;-1.00;99.90;;;;;;4974718;28;20353;-81
2021/12/23 03:10:41;;;;;;;;;;;-1.00;99.90;;;;;;4974787;28;19922;-80
2021/12/23 03:13:07;;;;;;;;;;;-1.00;99.90;;;;;;4974474;28;20004;-80
2021/12/23 03:15:32;;;;;;;;;;;-1.10;99.90;;;;;;4958588;28;19976;-81
2021/12/23 03:17:58;;;;;;;;;;;-1.10;99.90;;;;;;4958185;28;19933;-81
2021/12/23 03:20:23;;;;;;;;;;;-1.10;99.90;;;;;;4974289;28;20005;-81
2021/12/23 03:22:48;;;;;;;;;;;-1.00;99.90;;;;;;4974075;28;20382;-80
2021/12/23 03:25:14;;;;;;;;;;;-1.10;99.90;;;;;;4974380;28;20353;-81
2021/12/23 03:27:39;;;;;;;;;;;-1.10;99.90;;;;;;4974467;28;19969;-81
2021/12/23 03:30:05;;;;;;;;;;;-1.10;99.90;;;;;;4958239;28;19945;-80
2021/12/23 03:32:30;;;;;;;;;;;-1.10;99.90;;;;;;4973941;28;19929;-81
2021/12/23 03:34:56;;;;;;;;;;;-1.10;99.90;;;;;;4958099;28;20393;-80
2021/12/23 03:37:22;;;;;;;;;;;-1.10;99.90;;;;;;4958120;28;20314;-80
2021/12/23 03:39:51;;;;;;;;;;;-1.10;99.90;;;;;;4973861;28;19922;-80
2021/12/23 03:42:16;;;;;;;;;;;-1.10;99.90;;;;;;4957692;28;19922;-80
2021/12/23 03:44:42;;;;;;;;;;;-1.00;99.90;;;;;;4973827;28;19980;-80
2021/12/23 03:47:07;;;;;;;;;;;-1.00;99.90;;;;;;4958192;28;20336;-80
2021/12/23 03:49:33;;;;;;;;;;;-1.00;99.90;;;;;;4973944;28;20438;-80
2021/12/23 03:51:58;;;;;;;;;;;-1.00;99.90;;;;;;4957862;28;19922;-80
2021/12/23 03:54:24;;;;;;;;;;;-1.00;99.90;;;;;;4957635;28;19957;-80
2021/12/23 03:56:49;;;;;;;;;;;-1.00;99.90;;;;;;4973514;28;20017;-80
2021/12/23 03:59:15;;;;;;;;;;;-1.00;99.90;;;;;;4957358;28;20009;-80
2021/12/23 04:01:40;;;;;;;;;;;-1.00;99.90;;;;;;4957595;28;19933;-80
2021/12/23 04:04:06;;;;;;;;;;;-1.00;99.90;;;;;;4957326;28;19929;-80
2021/12/23 04:06:31;;;;;;;;;;;-1.00;99.90;;;;;;4957891;28;19926;-80
2021/12/23 04:08:57;;;;;;;;;;;-1.00;99.90;;;;;;4957717;28;19922;-80
2021/12/23 04:11:22;;;;;;;;;;;-1.00;99.90;;;;;;4957135;28;19929;-80
2021/12/23 04:13:48;;;;;;;;;;;-1.00;99.90;;;;;;4957202;28;19925;-81
2021/12/23 04:16:14;;;;;;;;;;;-1.00;99.90;;;;;;4973456;28;19955;-81
2021/12/23 04:18:40;;;;;;;;;;;-1.00;99.90;;;;;;4957312;28;20374;-81
2021/12/23 04:21:05;;;;;;;;;;;-1.00;99.90;;;;;;4957186;28;19922;-81
2021/12/23 04:23:31;;;;;;;;;;;-1.00;99.90;;;;;;4973059;28;20079;-81
2021/12/23 04:25:57;;;;;;;;;;;-0.90;99.90;;;;;;4957031;28;19957;-80
2021/12/23 04:28:24;;;;;;;;;;;-0.90;99.90;;;;;;4973300;28;19926;-80
2021/12/23 04:30:49;;;;;;;;;;;-1.00;99.90;;;;;;4973074;28;19922;-80
2021/12/23 04:33:15;;;;;;;;;;;-0.90;99.90;;;;;;4972974;28;20425;-81
2021/12/23 04:35:41;;;;;;;;;;;-0.90;99.90;;;;;;4956935;28;20393;-81
2021/12/23 04:38:06;;;;;;;;;;;-0.90;99.90;;;;;;4957078;28;19938;-81
2021/12/23 04:40:36;;;;;;;;;;;-0.90;99.90;;;;;;4956738;28;19933;-81
2021/12/23 04:43:04;;;;;;;;;;;-0.90;99.90;;;;;;4973004;28;20410;-80
2021/12/23 04:45:29;;;;;;;;;;;-0.80;99.90;;;;;;4956638;28;19922;-81
2021/12/23 04:47:55;;;;;;;;;;;-0.80;99.90;;;;;;4956976;28;20293;-81
2021/12/23 04:50:20;;;;;;;;;;;-0.80;99.90;;;;;;4956980;28;19977;-81
2021/12/23 04:52:46;;;;;;;;;;;-0.80;99.90;;;;;;4956116;28;19922;-81
2021/12/23 04:55:12;;;;;;;;;;;-0.80;99.90;;;;;;4973376;28;19926;-81
2021/12/23 04:57:37;;;;;;;;;;;-0.80;99.90;;;;;;4956053;28;20382;-80
2021/12/23 05:00:05;;;;;;;;;;;-0.80;99.90;;;;;;4972394;28;19929;-80
2021/12/23 05:02:30;;;;;;;;;;;-0.80;99.90;;;;;;4972814;28;20016;-81
2021/12/23 05:04:56;;;;;;;;;;;-0.80;99.90;;;;;;4956268;28;20017;-81
2021/12/23 05:07:21;;;;;;;;;;;-0.80;99.90;;;;;;4956391;28;19925;-81
2021/12/23 05:09:47;;;;;;;;;;;-0.80;99.90;;;;;;4955750;28;19949;-81
2021/12/23 05:12:12;;;;;;;;;;;-0.70;99.90;;;;;;4956536;28;20409;-81
2021/12/23 05:14:38;;;;;;;;;;;-0.70;99.90;;;;;;4957786;28;19922;-80
2021/12/23 05:17:04;;;;;;;;;;;-0.70;99.90;;;;;;4972618;28;19926;-81
2021/12/23 05:19:29;;;;;;;;;;;-0.70;99.90;;;;;;4956272;28;19922;-81
2021/12/23 05:21:54;;;;;;;;;;;-0.70;99.90;;;;;;4956230;28;19946;-81
2021/12/23 05:24:20;;;;;;;;;;;-0.70;99.90;;;;;;4972333;28;19957;-80
2021/12/23 05:26:45;;;;;;;;;;;-0.70;99.90;;;;;;4972377;28;19973;-80
2021/12/23 05:29:11;;;;;;;;;;;-0.70;99.90;;;;;;4956518;28;20375;-80
2021/12/23 05:31:40;;;;;;;;;;;-0.60;99.90;;;;;;4956442;28;19922;-80
2021/12/23 05:34:06;;;;;;;;;;;-0.60;99.90;;;;;;4956144;28;20205;-81
2021/12/23 05:36:31;;;;;;;;;;;-0.60;99.90;;;;;;4956546;28;20305;-81
2021/12/23 05:38:57;;;;;;;;;;;-0.60;99.90;;;;;;4955935;28;19929;-80
2021/12/23 05:41:26;;;;;;;;;;;-0.60;99.90;;;;;;4972119;28;19931;-80
2021/12/23 05:43:56;;;;;;;;;;;-0.60;99.90;;;;;;4955716;28;19922;-80
2021/12/23 05:46:22;;;;;;;;;;;-0.60;99.90;;;;;;4956241;28;19941;-80
2021/12/23 05:48:47;;;;;;;;;;;-0.60;99.90;;;;;;4956038;28;19922;-80
2021/12/23 05:51:13;;;;;;;;;;;-0.60;99.90;;;;;;4956005;28;19922;-80
2021/12/23 05:53:38;;;;;;;;;;;-0.60;99.90;;;;;;4955892;28;20456;-81
2021/12/23 05:56:04;;;;;;;;;;;-0.60;99.90;;;;;;4955945;28;19923;-81
2021/12/23 05:58:30;;;;;;;;;;;-0.60;99.90;;;;;;4972029;28;19926;-80
2021/12/23 06:00:55;;;;;;;;;;;-0.60;99.90;;;;;;4971499;28;19928;-81
2021/12/23 06:03:21;;;;;;;;;;;-0.60;99.90;;;;;;4971756;28;19922;-81
2021/12/23 06:05:46;;;;;;;;;;;-0.60;99.90;;;;;;4972109;28;20442;-80
2021/12/23 06:08:11;;;;;;;;;;;-0.60;99.90;;;;;;4955906;28;19926;-80
2021/12/23 06:10:37;;;;;;;;;;;-0.60;99.90;;;;;;4955701;28;19945;-81
2021/12/23 06:13:02;;;;;;;;;;;-0.60;99.90;;;;;;4955837;28;19926;-83
2021/12/23 06:15:28;;;;;;;;;;;-0.60;99.90;;;;;;4955828;28;19922;-81
2021/12/23 06:17:53;;;;;;;;;;;-0.60;99.90;;;;;;4954796;28;20412;-81
2021/12/23 06:20:19;;;;;;;;;;;-0.60;99.90;;;;;;4979584;28;19922;-81
2021/12/23 06:22:45;;;;;;;;;;;-0.60;99.90;;;;;;4975481;28;19922;-81
2021/12/23 06:25:11;;;;;;;;;;;-0.60;99.90;;;;;;4975885;28;20382;-81
2021/12/23 06:27:37;;;;;;;;;;;-0.60;99.90;;;;;;4959456;28;19926;-80
2021/12/23 06:30:15;;;;;;;;;;;-0.50;99.90;;;;;;4959464;28;19929;-80
2021/12/23 06:32:41;;;;;;;;;;;-0.50;99.90;;;;;;4959297;28;20341;-80
2021/12/23 06:35:07;;;;;;;;;;;-0.50;99.90;;;;;;4975485;28;19926;-80
2021/12/23 06:37:32;;;;;;;;;;;-0.50;99.90;;;;;;4975021;28;20413;-80
2021/12/23 06:39:58;;;;;;;;;;;-0.50;99.90;;;;;;4958599;28;20349;-79
2021/12/23 06:42:24;;;;;;;;;;;-0.50;99.90;;;;;;4958902;28;19922;-81
2021/12/23 06:44:50;;;;;;;;;;;-0.50;99.90;;;;;;4959023;28;19926;-80
2021/12/23 06:47:15;;;;;;;;;;;-0.50;99.90;;;;;;4967818;28;19922;-80
2021/12/23 06:49:41;;;;;;;;;;;-0.50;99.90;;;;;;4940400;29;19927;-80
2021/12/23 06:52:06;;;;;;;;;;;-0.50;99.90;;;;;;4956629;28;19922;-80
2021/12/23 06:54:32;;;;;;;;;;;-0.50;99.90;;;;;;4940294;29;19926;-80
2021/12/23 06:56:57;;;;;;;;;;;-0.50;99.90;;;;;;4940773;29;19927;-80
2021/12/23 06:59:23;;;;;;;;;;;-0.50;99.90;;;;;;4949632;28;19922;-80
2021/12/23 07:01:49;;;;;;;;;;;-0.50;99.90;;;;;;4959620;28;20021;-80
2021/12/23 07:04:17;;;;;;;;;;;-0.50;99.90;;;;;;4959415;28;20014;-80
2021/12/23 07:06:52;;;;;;;;;;;-0.50;99.90;;;;;;4974890;28;20341;-79
2021/12/23 07:09:17;;;;;;;;;;;-0.50;99.90;;;;;;4958891;28;19922;-81
2021/12/23 07:11:43;;;;;;;;;;;-0.50;99.90;;;;;;4958245;28;19929;-78
2021/12/23 07:14:08;;;;;;;;;;;-0.40;99.90;;;;;;4974037;28;19922;-81
2021/12/23 07:16:37;;;;;;;;;;;-0.50;99.90;;;;;;4957193;28;19933;-80
2021/12/23 07:19:02;;;;;;;;;;;-0.50;99.90;;;;;;4982612;28;20021;-79
2021/12/23 07:21:28;;;;;;;;;;;-0.40;99.90;;;;;;4975400;28;19922;-80
2021/12/23 07:23:53;;;;;;;;;;;-0.40;99.90;;;;;;4961752;28;19922;-80
2021/12/23 07:26:19;;;;;;;;;;;-0.40;99.90;;;;;;4962241;28;20012;-79
2021/12/23 07:28:44;;;;;;;;;;;-0.40;99.90;;;;;;4962003;28;19949;-80
2021/12/23 07:31:10;;;;;;;;;;;-0.40;99.90;;;;;;4962330;28;19922;-80
2021/12/23 07:33:35;;;;;;;;;;;-0.40;99.90;;;;;;4978115;28;19988;-80
2021/12/23 07:36:03;;;;;;;;;;;-0.40;99.90;;;;;;4961986;28;19922;-80
2021/12/23 07:38:28;;;;;;;;;;;-0.40;99.90;;;;;;4962199;28;19980;-80
2021/12/23 07:40:54;;;;;;;;;;;-0.40;99.90;;;;;;4961495;28;19922;-80
2021/12/23 07:43:44;;;;;;;;;;;-0.40;99.90;;;;;;4962157;28;19922;-80
2021/12/23 07:46:10;;;;;;;;;;;-0.30;99.90;;;;;;4978050;28;19922;-80
2021/12/23 07:48:36;;;;;;;;;;;-0.30;99.90;;;;;;4961623;28;19972;-80
2021/12/23 07:51:03;;;;;;;;;;;-0.30;99.90;;;;;;4961959;28;20000;-80
2021/12/23 07:53:28;;;;;;;;;;;-0.30;99.90;;;;;;4977251;28;19929;-80
2021/12/23 07:55:54;;;;;;;;;;;-0.30;99.90;;;;;;4961299;28;19922;-80
2021/12/23 07:58:19;;;;;;;;;;;-0.30;99.90;;;;;;4961227;28;20311;-80
2021/12/23 08:00:45;;;;;;;;;;;-0.30;99.90;;;;;;4961023;28;19946;-80
2021/12/23 08:03:10;;;;;;;;;;;-0.20;99.90;;;;;;4960809;28;19947;-80
2021/12/23 08:05:36;;;;;;;;;;;-0.20;99.90;;;;;;4961206;28;20301;-80
2021/12/23 08:08:02;;;;;;;;;;;-0.20;99.90;;;;;;4960914;28;19925;-80
2021/12/23 08:10:28;;;;;;;;;;;-0.20;99.90;;;;;;4960996;28;19961;-80
2021/12/23 08:12:54;;;;;;;;;;;-0.20;99.90;;;;;;4961008;28;19926;-80
2021/12/23 08:15:19;;;;;;;;;;;-0.20;99.90;;;;;;4960746;28;19929;-80
2021/12/23 08:17:45;;;;;;;;;;;-0.20;99.90;;;;;;4976955;28;19961;-80
2021/12/23 08:20:11;;;;;;;;;;;-0.20;99.90;;;;;;4960514;28;19961;-80
2021/12/23 08:22:37;;;;;;;;;;;-0.20;99.90;;;;;;4960431;28;20448;-80
2021/12/23 08:25:03;;;;;;;;;;;-0.20;99.90;;;;;;4960762;28;19922;-80
2021/12/23 08:27:30;;;;;;;;;;;-0.20;99.90;;;;;;4960931;28;20060;-80
2021/12/23 08:29:56;;;;;;;;;;;-0.20;99.90;;;;;;4960638;28;19977;-81
2021/12/23 08:32:21;;;;;;;;;;;-0.20;99.90;;;;;;4976049;28;19926;-80
2021/12/23 08:34:47;;;;;;;;;;;-0.20;99.90;;;;;;4960198;28;19922;-79
2021/12/23 08:37:12;;;;;;;;;;;-0.20;99.90;;;;;;4960450;28;19932;-80
2021/12/23 08:39:38;;;;;;;;;;;-0.20;99.90;;;;;;4960100;28;19987;-80
2021/12/23 08:42:04;;;;;;;;;;;-0.20;99.90;;;;;;4960355;28;19929;-81
2021/12/23 08:44:29;;;;;;;;;;;-0.20;99.90;;;;;;4975424;28;19933;-80
2021/12/23 08:46:55;;;;;;;;;;;-0.20;99.90;;;;;;4976668;28;20276;-80
2021/12/23 08:49:20;;;;;;;;;;;-0.20;99.90;;;;;;4960107;28;20275;-80
2021/12/23 08:51:48;;;;;;;;;;;-0.20;99.90;;;;;;4959866;28;21496;-80
2021/12/23 08:54:13;;;;;;;;;;;-0.20;99.90;;;;;;4959574;28;20346;-80
2021/12/23 08:56:39;;;;;;;;;;;-0.20;99.90;;;;;;4960513;28;19933;-80
2021/12/23 08:59:04;;;;;;;;;;;-0.20;99.90;;;;;;4960661;28;19929;-80
2021/12/23 09:01:30;;;;;;;;;;;-0.20;99.90;;;;;;4960541;28;19957;-80
2021/12/23 09:03:56;;;;;;;;;;;-0.10;99.90;;;;;;4959912;28;20382;-80
2021/12/23 09:06:21;;;;;;;;;;;-0.10;99.90;;;;;;4959938;28;20016;-80
2021/12/23 09:08:47;;;;;;;;;;;-0.10;99.90;;;;;;4976271;28;19941;-80
2021/12/23 09:11:12;;;;;;;;;;;-0.10;99.90;;;;;;4958826;28;19922;-80
2021/12/23 09:13:38;;;;;;;;;;;0.00;99.90;;;;;;4958971;28;19930;-80
2021/12/23 09:16:03;;;;;;;;;;;0.00;99.90;;;;;;4958472;28;19922;-80
2021/12/23 09:18:29;;;;;;;;;;;0.00;99.90;;;;;;4975398;28;19926;-80
2021/12/23 09:20:56;;;;;;;;;;;0.00;99.90;;;;;;4959034;28;19926;-81
2021/12/23 09:23:22;;;;;;;;;;;0.00;99.90;;;;;;4975519;28;20334;-81
2021/12/23 09:25:48;;;;;;;;;;;0.00;99.90;;;;;;4975437;28;20367;-81
2021/12/23 09:33:25;;;;;;;;;;;0.10;99.90;;;;;;4973848;28;19926;-81
2021/12/23 09:35:50;;;;;;;;;;;0.10;99.90;;;;;;4957815;28;19947;-81
2021/12/23 09:38:17;;;;;;;;;;;0.10;99.90;;;;;;4974710;28;19968;-81
2021/12/23 09:40:43;;;;;;;;;;;0.10;99.90;;;;;;4975468;28;20025;-81
2021/12/23 09:43:11;;;;;;;;;;;0.20;99.90;;;;;;4959070;28;20394;-81
2021/12/23 09:45:38;;;;;;;;;;;0.20;99.90;;;;;;4960268;28;19937;-82
2021/12/23 09:48:04;;;;;;;;;;;0.20;99.90;;;;;;4974190;28;19922;-81
2021/12/23 09:50:32;;;;;;;;;;;0.20;99.90;;;;;;4959044;28;19929;-82
2021/12/23 09:52:59;;;;;;;;;;;0.20;99.90;;;;;;4974346;28;19961;-82
2021/12/23 09:55:25;;;;;;;;;;;0.20;99.90;;;;;;4959790;28;19929;-82
2021/12/23 09:57:52;;;;;;;;;;;0.20;99.90;;;;;;4978392;28;19933;-82
2021/12/23 10:00:18;;;;;;;;;;;0.30;99.90;;;;;;4962452;28;19972;-81
2021/12/23 10:02:44;;;;;;;;;;;0.30;99.90;;;;;;4979784;28;20021;-82
2021/12/23 10:05:15;;;;;;;;;;;0.30;99.90;;;;;;4979548;28;19973;-81
2021/12/23 10:07:41;;;;;;;;;;;0.30;99.90;;;;;;4979246;28;19922;-82
2021/12/23 10:10:16;;;;;;;;;;;0.30;99.90;;;;;;4963561;28;19922;-81
2021/12/23 10:13:19;;;;;;;;;;;0.30;99.90;;;;;;4963396;28;20347;-82
2021/12/23 10:30:15;;;;;;;;;;;0.40;99.90;;;;;;4981745;28;20121;-81
2021/12/23 10:38:08;;;;;;;;;;;0.40;99.90;;;;;;4980670;28;19950;-81
2021/12/23 10:40:34;;;;;;;;;;;0.40;99.90;;;;;;4963603;28;19922;-81
2021/12/23 10:43:00;;;;;;;;;;;0.40;99.90;;;;;;4963099;28;20433;-81
2021/12/23 10:45:34;;;;;;;;;;;0.40;99.90;;;;;;4979889;28;19922;-81
2021/12/23 10:48:05;;;;;;;;;;;0.40;99.90;;;;;;4979749;28;19972;-81
2021/12/23 10:50:42;;;;;;;;;;;0.40;99.90;;;;;;4963226;28;19922;-82
2021/12/23 10:59:03;;;;;;;;;;;0.40;99.90;;;;;;4979064;28;19930;-81
2021/12/23 11:01:29;;;;;;;;;;;0.50;99.90;;;;;;4981824;28;20295;-82
2021/12/23 11:04:05;;;;;;;;;;;0.50;99.90;;;;;;4963016;28;20016;-81
2021/12/23 11:06:40;;;;;;;;;;;0.50;99.90;;;;;;4964566;28;20395;-82
2021/12/23 11:09:34;;;;;;;;;;;0.50;99.90;;;;;;4964486;28;20286;-82
2021/12/23 11:27:30;;;;;;;;;;;0.50;99.90;;;;;;4979178;28;19922;-82
2021/12/23 11:32:15;;;;;;;;;;;0.60;99.90;;;;;;4976698;28;19986;-83
2021/12/23 11:37:11;;;;;;;;;;;0.60;99.90;;;;;;4976038;28;19977;-83
2021/12/23 11:40:05;;;;;;;;;;;0.60;99.90;;;;;;4960527;28;19969;-83
2021/12/23 11:42:40;;;;;;;;;;;0.60;99.90;;;;;;4976125;28;19929;-84
2021/12/23 11:45:06;;;;;;;;;;;0.60;99.90;;;;;;4964644;28;20023;-83
2021/12/23 11:47:32;;;;;;;;;;;0.60;99.90;;;;;;4961025;28;19926;-83
2021/12/23 11:49:57;;;;;;;;;;;0.60;99.90;;;;;;4961562;28;20001;-83
2021/12/23 11:52:23;;;;;;;;;;;0.60;99.90;;;;;;4961307;28;19949;-82
2021/12/23 11:54:48;;;;;;;;;;;0.60;99.90;;;;;;4962293;28;19922;-84
2021/12/23 11:57:24;;;;;;;;;;;0.50;99.90;;;;;;4961357;28;19926;-82
2021/12/23 12:00:02;;;;;;;;;;;0.50;99.90;;;;;;4981099;28;19926;-82
2021/12/23 12:02:29;;;;;;;;;;;0.60;99.90;;;;;;4965710;28;19929;-84
2021/12/23 12:05:04;;;;;;;;;;;0.50;99.90;;;;;;4980518;28;19926;-84
2021/12/23 12:07:30;;;;;;;;;;;0.50;99.90;;;;;;4965264;28;20009;-83
2021/12/23 12:09:57;;;;;;;;;;;0.60;99.90;;;;;;4964552;28;20343;-83
2021/12/23 12:12:23;;;;;;;;;;;0.50;99.90;;;;;;4960726;28;19922;-84
2021/12/23 12:14:51;;;;;;;;;;;0.60;99.90;;;;;;4960811;28;20405;-84
2021/12/23 12:17:25;;;;;;;;;;;0.50;99.90;;;;;;4962159;28;19933;-83
2021/12/23 12:19:51;;;;;;;;;;;0.60;99.90;;;;;;4962017;28;19969;-83
2021/12/23 12:22:35;;;;;;;;;;;0.50;99.90;;;;;;4961997;28;19922;-83
2021/12/23 12:25:01;;;;;;;;;;;0.60;99.90;;;;;;4960577;28;20508;-83
2021/12/23 12:27:27;;;;;;;;;;;0.60;99.90;;;;;;4959947;28;19922;-84
2021/12/23 12:30:03;;;;;;;;;;;0.60;99.90;;;;;;4975551;28;19969;-84
2021/12/23 12:32:36;;;;;;;;;;;0.60;99.90;;;;;;4959622;28;19944;-85
2021/12/23 12:35:10;;;;;;;;;;;0.60;99.90;;;;;;4975080;28;19926;-83
2021/12/23 12:37:44;;;;;;;;;;;0.60;99.90;;;;;;4958447;28;20482;-84
2021/12/23 12:40:10;;;;;;;;;;;0.60;99.90;;;;;;4958000;28;19966;-83
2021/12/23 12:42:40;;;;;;;;;;;0.70;99.90;;;;;;4973882;28;19929;-84
2021/12/23 12:45:12;;;;;;;;;;;0.60;99.90;;;;;;4958041;28;19969;-83
2021/12/23 12:47:47;;;;;;;;;;;0.60;99.90;;;;;;4957699;28;20382;-84
2021/12/23 12:50:15;;;;;;;;;;;0.60;99.90;;;;;;4958842;28;19926;-84
2021/12/23 12:52:42;;;;;;;;;;;0.60;99.90;;;;;;4957916;28;19998;-83
2021/12/23 12:55:10;;;;;;;;;;;0.60;99.90;;;;;;4957856;28;19922;-83
2021/12/23 12:57:39;;;;;;;;;;;0.60;99.90;;;;;;4973937;28;19926;-84
2021/12/23 13:00:16;;;;;;;;;;;0.60;99.90;;;;;;4957820;28;19926;-82
2021/12/23 13:02:47;;;;;;;;;;;0.60;99.90;;;;;;4958001;28;19926;-83
2021/12/23 13:05:12;;;;;;;;;;;0.60;99.90;;;;;;4957987;28;20379;-83
2021/12/23 13:07:39;;;;;;;;;;;0.60;99.90;;;;;;4958290;28;19977;-83
2021/12/23 13:10:08;;;;;;;;;;;0.60;99.90;;;;;;4957497;28;19921;-83
2021/12/23 13:12:51;;;;;;;;;;;0.60;99.90;;;;;;4957394;28;19929;-83
2021/12/23 13:15:20;;;;;;;;;;;0.60;99.90;;;;;;4957642;28;19922;-83
2021/12/23 13:17:51;;;;;;;;;;;0.60;99.90;;;;;;4957335;28;19930;-83
2021/12/23 13:20:17;;;;;;;;;;;0.60;99.90;;;;;;4958560;28;19976;-83
2021/12/23 13:22:44;;;;;;;;;;;0.60;99.90;;;;;;4959091;28;20290;-83
2021/12/23 13:25:10;;;;;;;;;;;0.60;99.90;;;;;;4958652;28;19929;-83
2021/12/23 13:27:42;;;;;;;;;;;0.60;99.90;;;;;;4957274;28;19968;-83
2021/12/23 13:30:11;;;;;;;;;;;0.70;99.90;;;;;;4956799;28;19922;-83
2021/12/23 13:32:37;;;;;;;;;;;0.70;99.90;;;;;;4956730;28;19976;-85
2021/12/23 13:35:13;;;;;;;;;;;0.70;99.90;;;;;;4973283;28;20413;-83
2021/12/23 13:37:45;;;;;;;;;;;0.70;99.90;;;;;;4958326;28;19926;-84
2021/12/23 13:40:12;;;;;;;;;;;0.80;99.90;;;;;;4957438;28;19922;-83
2021/12/23 13:42:38;;;;;;;;;;;0.80;99.90;;;;;;4972822;28;19922;-84
2021/12/23 13:45:04;;;;;;;;;;;0.80;99.90;;;;;;4957372;28;20385;-83
2021/12/23 13:47:29;;;;;;;;;;;0.80;99.90;;;;;;4957470;28;20060;-83
2021/12/23 13:49:56;;;;;;;;;;;0.80;99.90;;;;;;4957386;28;19922;-83
2021/12/23 13:52:27;;;;;;;;;;;0.80;99.90;;;;;;4973405;28;19933;-84
2021/12/23 13:54:55;;;;;;;;;;;0.90;99.90;;;;;;4973353;28;19929;-83
2021/12/23 13:57:21;;;;;;;;;;;0.90;99.90;;;;;;4973440;28;19930;-83
2021/12/23 13:59:47;;;;;;;;;;;0.90;99.90;;;;;;4958842;28;20335;-83
2021/12/23 14:02:13;;;;;;;;;;;1.00;99.90;;;;;;4974159;28;19922;-84
2021/12/23 14:04:43;;;;;;;;;;;1.00;99.90;;;;;;4973517;28;19945;-83
2021/12/23 14:07:23;;;;;;;;;;;1.00;99.90;;;;;;4957010;28;19989;-83
2021/12/23 14:09:51;;;;;;;;;;;1.00;99.90;;;;;;4957218;28;19922;-83
2021/12/23 14:12:21;;;;;;;;;;;1.00;99.90;;;;;;4972916;28;19937;-83
2021/12/23 14:14:54;;;;;;;;;;;1.00;99.90;;;;;;4957404;28;19949;-83
2021/12/23 14:17:28;;;;;;;;;;;1.00;99.90;;;;;;4957262;28;20020;-84
2021/12/23 14:23:11;;;;;;;;;;;1.00;99.90;;;;;;4958117;28;19922;-83
2021/12/23 14:25:30;;;;;;;;;;;1.00;99.90;;;;;;4973929;28;20024;-83
2021/12/23 14:27:56;;;;;;;;;;;0.90;99.90;;;;;;4974670;28;19970;-83
2021/12/23 14:30:32;;;;;;;;;;;0.90;99.90;;;;;;4958237;28;20152;-83
2021/12/23 14:33:12;;;;;;;;;;;0.90;99.90;;;;;;4957139;28;19922;-83
2021/12/23 14:35:37;;;;;;;;;;;0.90;99.90;;;;;;4957068;28;19922;-83
2021/12/23 14:38:03;;;;;;;;;;;0.90;99.90;;;;;;4956112;28;20310;-83
2021/12/23 14:40:28;;;;;;;;;;;0.90;99.90;;;;;;4956503;28;19922;-85
2021/12/23 14:43:02;;;;;;;;;;;0.90;99.90;;;;;;4958586;28;19922;-83
2021/12/23 14:45:28;;;;;;;;;;;0.90;99.90;;;;;;4960015;28;19923;-83
2021/12/23 14:48:07;;;;;;;;;;;0.90;99.90;;;;;;4960472;28;20488;-83
2021/12/23 14:50:37;;;;;;;;;;;0.90;99.90;;;;;;4960193;28;20378;-83
2021/12/23 14:53:15;;;;;;;;;;;0.90;99.90;;;;;;4960135;28;19929;-84
2021/12/23 14:55:41;;;;;;;;;;;0.90;99.90;;;;;;4976103;28;20444;-84
2021/12/23 14:58:06;;;;;;;;;;;0.90;99.90;;;;;;4960224;28;19942;-83
2021/12/23 15:00:33;;;;;;;;;;;0.90;99.90;;;;;;4976446;28;19949;-83
2021/12/23 15:03:00;;;;;;;;;;;0.90;99.90;;;;;;4959595;28;19923;-84
2021/12/23 15:05:26;;;;;;;;;;;0.90;99.90;;;;;;4976134;28;19929;-84
2021/12/23 15:07:55;;;;;;;;;;;0.90;99.90;;;;;;4976488;28;19926;-84
2021/12/23 15:10:29;;;;;;;;;;;0.90;99.90;;;;;;4960940;28;19965;-83
2021/12/23 15:12:55;;;;;;;;;;;0.90;99.90;;;;;;4978815;28;20016;-83
2021/12/23 15:15:20;;;;;;;;;;;0.90;99.90;;;;;;4963798;28;19988;-83
2021/12/23 15:17:51;;;;;;;;;;;1.00;99.90;;;;;;4960459;28;19927;-84
2021/12/23 15:20:18;;;;;;;;;;;1.00;99.90;;;;;;4977207;28;19945;-83